Hauptseite
METAR-TAF:

METAR-TAF

Flughäfen :

Novara, Italien

Militärflugplatz Cameri

Breite: 45-31N, Länge: 008-40E, Höhe: 178 m

Beobachtung

Neuester Wetterbericht von vor 53 Minuten, um 10:55 UTC
Wind 2 kt aus unterschiedlichen Richtungen
Temperatur 8°C
Luftfeuchtigkeit 61%
Luftdruck 1021 hPa
Sichtweite 10 km oder mehr
keine Wolken unter 1500 m und keine Kumulonimbus oder Gewitterwolken

METAR: LIMN 231055Z VRB02KT CAVOK 08/01 Q1021 RMK FEW FEW200 VIS MIN 9999 BLU

Zeit: 12:48 (11:48 UTC)

Prognose

Neuester Wetterbericht von vor 48 Minuten, um 11:00 UTC
Gültige Prognose vom 23 um 12 UTC bis 23 um 21 UTC
Wind 5 kt aus Nordost
Sichtweite 10 km oder mehr
keine Wolken unter 1500 m und keine Kumulonimbus oder Gewitterwolken

TAF: LIMN 231100Z 2312/2321 05005KT CAVOK

Wetterbeobachtungen und Prognosen von mehr als 4000 Flughäfen (METAR und TAF Bericht).

Die verfügbaren Stationen werden durch gelbe und rote Markierungen auf der Karte dargestellt.

Führen Sie die Maus auf sie, um den Namen der Station zu sehen.

Darauf klicken, um die Beobachtung von Wetterbeobachtungen und Prognosen zu sehen.

Um die Karte zu ändern : klicken Sie auf den grünen Tasten mit einem schwarzen Kreuz Zum Vergrößern, auf den grünen Button mit einem Gedankenstrich zu verkleinern, oder auf die grünen Pfeile für benachbarte Karten.


METAR-TAF: